Archival Weather

General Ignacio P Garcia Intl

General Ignacio P Garcia Intl, Mexico (MMHO)

Report from: Wednesday, September 20, 2023 4:40 AM CST
Current time: Wednesday, April 24, 2024 1:48 PM CST

Current weather – Weather history – Daily summaries
Weather forecast

Temperature26.0°C (78.8°F)
Dew point26.0°C (78.8°F)
Winds Calm
Visibility8 mi. (12.9 km)
Clouds Sky clear
Altimeter29.82 in.Hg (1010 mB)
Relative humidity100 %
Density altitude1,834 ft. (559 m)
Flight conditions Visual Meteorological Conditions
Raw dataMMHO 201040Z 00000KT 8SM SKC 26/26 A2982 RMK HZY
An error has occurred. This application may no longer respond until reloaded. Reload 🗙